<?xml version='1.0' encoding='UTF-8'?>
<gpx xmlns="http://www.topografix.com/GPX/1/1" creator="www.balnam.be" version="1.1" xmlns:xsi="http://www.w3.org/2001/XMLSchema-instance" xsi:schemaLocation="http://www.topografix.com/GPX/1/1 http://www.topografix.com/GPX/1/1/gpx.xsd">
<trk>
<name>hbtjm1</name>
<cmt>v</cmt>
<desc>Jollain-Merlin Chemin n°1 Chemin vert</desc>
<link href="https://chemins.be/jollainmerlin/chemin/1"/><trkseg>
<trkpt lat="50.549490" lon="3.400286"><time>2026-05-02T16:53:30Z</time></trkpt>
<trkpt lat="50.549141" lon="3.406337"><time>2026-05-02T17:03:30Z</time></trkpt>
<trkpt lat="50.549293" lon="3.410276"><time>2026-05-02T17:13:30Z</time></trkpt>
</trkseg>
</trk>
<trk>
<name>hbtjm10</name>
<cmt>v</cmt>
<desc>Jollain-Merlin Sentier n°10 </desc>
<link href="https://chemins.be/jollainmerlin/sentier/10"/><trkseg>
<trkpt lat="50.539583" lon="3.406386"><time>2026-05-02T16:53:30Z</time></trkpt>
<trkpt lat="50.539761" lon="3.406318"><time>2026-05-02T17:03:30Z</time></trkpt>
<trkpt lat="50.540701" lon="3.406330"><time>2026-05-02T17:13:30Z</time></trkpt>
</trkseg></trk>
<trk>
<name>hbtjm10</name>
<cmt>d</cmt>
<desc>Jollain-Merlin Sentier n°10 </desc>
<link href="https://chemins.be/jollainmerlin/sentier/10"/><trkseg>
<trkpt lat="50.540701" lon="3.406330"><time>2026-05-02T17:13:30Z</time></trkpt>
<trkpt lat="50.540943" lon="3.406527"><time>2026-05-02T17:23:30Z</time></trkpt>
<trkpt lat="50.544120" lon="3.409101"><time>2026-05-02T17:33:30Z</time></trkpt>
<trkpt lat="50.548343" lon="3.410452"><time>2026-05-02T17:43:30Z</time></trkpt>
</trkseg>
</trk>
<trk>
<name>hbtjm12</name>
<cmt>d</cmt>
<desc>Jollain-Merlin Sentier n°12 </desc>
<link href="https://chemins.be/jollainmerlin/sentier/12"/><trkseg>
<trkpt lat="50.537712" lon="3.413937"><time>2026-05-02T16:53:30Z</time></trkpt>
<trkpt lat="50.539702" lon="3.413580"><time>2026-05-02T17:03:30Z</time></trkpt>
</trkseg></trk>
<trk>
<name>hbtjm12</name>
<cmt>b</cmt>
<desc>Jollain-Merlin Sentier n°12 </desc>
<link href="https://chemins.be/jollainmerlin/sentier/12"/><trkseg>
<trkpt lat="50.539702" lon="3.413580"><time>2026-05-02T17:03:30Z</time></trkpt>
<trkpt lat="50.540349" lon="3.413514"><time>2026-05-02T17:13:30Z</time></trkpt>
<trkpt lat="50.540444" lon="3.413238"><time>2026-05-02T17:23:30Z</time></trkpt>
</trkseg>
</trk>
<trk>
<name>hbtjm13</name>
<cmt>v</cmt>
<desc>Jollain-Merlin Chemin n°13 </desc>
<link href="https://chemins.be/jollainmerlin/chemin/13"/><trkseg>
<trkpt lat="50.540483" lon="3.413105"><time>2026-05-02T16:53:30Z</time></trkpt>
<trkpt lat="50.547765" lon="3.410753"><time>2026-05-02T17:03:30Z</time></trkpt>
</trkseg>
</trk>
<trk>
<name>hbtjm14</name>
<cmt>d</cmt>
<desc>Jollain-Merlin Sentier n°14 </desc>
<link href="https://chemins.be/jollainmerlin/sentier/14"/><trkseg>
<trkpt lat="50.547625" lon="3.410688"><time>2026-05-02T16:53:30Z</time></trkpt>
<trkpt lat="50.547379" lon="3.405822"><time>2026-05-02T17:03:30Z</time></trkpt>
<trkpt lat="50.546948" lon="3.404071"><time>2026-05-02T17:13:30Z</time></trkpt>
<trkpt lat="50.546845" lon="3.401788"><time>2026-05-02T17:23:30Z</time></trkpt>
<trkpt lat="50.546130" lon="3.399204"><time>2026-05-02T17:33:30Z</time></trkpt>
<trkpt lat="50.545912" lon="3.396998"><time>2026-05-02T17:43:30Z</time></trkpt>
</trkseg>
</trk>
<trk>
<name>hbtjm15</name>
<cmt>q</cmt>
<desc>Jollain-Merlin Sentier n°15 </desc>
<link href="https://chemins.be/jollainmerlin/sentier/15"/><trkseg>
<trkpt lat="50.539495" lon="3.402251"><time>2026-05-02T16:53:30Z</time></trkpt>
<trkpt lat="50.540662" lon="3.402371"><time>2026-05-02T17:03:30Z</time></trkpt>
</trkseg></trk>
<trk>
<name>hbtjm15</name>
<cmt>d</cmt>
<desc>Jollain-Merlin Sentier n°15 </desc>
<link href="https://chemins.be/jollainmerlin/sentier/15"/><trkseg>
<trkpt lat="50.540662" lon="3.402371"><time>2026-05-02T17:03:30Z</time></trkpt>
<trkpt lat="50.541811" lon="3.401907"><time>2026-05-02T17:13:30Z</time></trkpt>
<trkpt lat="50.543924" lon="3.401444"><time>2026-05-02T17:23:30Z</time></trkpt>
<trkpt lat="50.546051" lon="3.402406"><time>2026-05-02T17:33:30Z</time></trkpt>
</trkseg>
</trk>
<trk>
<name>hbtjm17</name>
<cmt>d</cmt>
<desc>Jollain-Merlin Sentier n°17 </desc>
<link href="https://chemins.be/jollainmerlin/sentier/17"/><trkseg>
<trkpt lat="50.550148" lon="3.397131"><time>2026-05-02T16:53:30Z</time></trkpt>
<trkpt lat="50.549161" lon="3.396694"><time>2026-05-02T17:03:30Z</time></trkpt>
<trkpt lat="50.546821" lon="3.394471"><time>2026-05-02T17:13:30Z</time></trkpt>
</trkseg>
</trk>
<trk>
<name>hbtjm19</name>
<cmt>q</cmt>
<desc>Jollain-Merlin Sentier n°19 </desc>
<link href="https://chemins.be/jollainmerlin/sentier/19"/><trkseg>
<trkpt lat="50.554192" lon="3.399217"><time>2026-05-02T16:53:30Z</time></trkpt>
<trkpt lat="50.553477" lon="3.398217"><time>2026-05-02T17:03:30Z</time></trkpt>
<trkpt lat="50.552578" lon="3.396960"><time>2026-05-02T17:13:30Z</time></trkpt>
<trkpt lat="50.553031" lon="3.393604"><time>2026-05-02T17:23:30Z</time></trkpt>
<trkpt lat="50.552763" lon="3.392093"><time>2026-05-02T17:33:30Z</time></trkpt>
</trkseg>
</trk>
<trk>
<name>hbtjm20</name>
<cmt>d</cmt>
<desc>Jollain-Merlin Sentier n°20 </desc>
<link href="https://chemins.be/jollainmerlin/sentier/20"/><trkseg>
<trkpt lat="50.536906" lon="3.413401"><time>2026-05-02T16:53:30Z</time></trkpt>
<trkpt lat="50.536939" lon="3.412946"><time>2026-05-02T17:03:30Z</time></trkpt>
<trkpt lat="50.536704" lon="3.412242"><time>2026-05-02T17:13:30Z</time></trkpt>
<trkpt lat="50.536944" lon="3.410551"><time>2026-05-02T17:23:30Z</time></trkpt>
<trkpt lat="50.535401" lon="3.408877"><time>2026-05-02T17:33:30Z</time></trkpt>
<trkpt lat="50.534056" lon="3.406787"><time>2026-05-02T17:43:30Z</time></trkpt>
<trkpt lat="50.533924" lon="3.406882"><time>2026-05-02T17:53:30Z</time></trkpt>
<trkpt lat="50.533420" lon="3.405925"><time>2026-05-02T18:03:30Z</time></trkpt>
<trkpt lat="50.532782" lon="3.403496"><time>2026-05-02T18:13:30Z</time></trkpt>
<trkpt lat="50.531134" lon="3.399814"><time>2026-05-02T18:23:30Z</time></trkpt>
<trkpt lat="50.530463" lon="3.398955"><time>2026-05-02T18:33:30Z</time></trkpt>
</trkseg></trk>
<trk>
<name>hbtjm20</name>
<cmt>v</cmt>
<desc>Jollain-Merlin Sentier n°20 </desc>
<link href="https://chemins.be/jollainmerlin/sentier/20"/><trkseg>
<trkpt lat="50.530463" lon="3.398955"><time>2026-05-02T18:33:30Z</time></trkpt>
<trkpt lat="50.530038" lon="3.398071"><time>2026-05-02T18:43:30Z</time></trkpt>
<trkpt lat="50.529765" lon="3.398337"><time>2026-05-02T18:53:30Z</time></trkpt>
<trkpt lat="50.529337" lon="3.397474"><time>2026-05-02T19:03:30Z</time></trkpt>
</trkseg></trk>
<trk>
<name>hbtjm20</name>
<cmt>d</cmt>
<desc>Jollain-Merlin Sentier n°20 </desc>
<link href="https://chemins.be/jollainmerlin/sentier/20"/><trkseg>
<trkpt lat="50.529337" lon="3.397474"><time>2026-05-02T19:03:30Z</time></trkpt>
<trkpt lat="50.527593" lon="3.393960"><time>2026-05-02T19:13:30Z</time></trkpt>
<trkpt lat="50.527675" lon="3.393651"><time>2026-05-02T19:23:30Z</time></trkpt>
</trkseg></trk>
<trk>
<name>hbtjm20</name>
<cmt>v</cmt>
<desc>Jollain-Merlin Sentier n°20 </desc>
<link href="https://chemins.be/jollainmerlin/sentier/20"/><trkseg>
<trkpt lat="50.527675" lon="3.393651"><time>2026-05-02T19:23:30Z</time></trkpt>
<trkpt lat="50.526584" lon="3.392273"><time>2026-05-02T19:33:30Z</time></trkpt>
<trkpt lat="50.526424" lon="3.392271"><time>2026-05-02T19:43:30Z</time></trkpt>
</trkseg>
</trk>
<trk>
<name>hbtjm22</name>
<cmt>d</cmt>
<desc>Jollain-Merlin Sentier n°22 </desc>
<link href="https://chemins.be/jollainmerlin/sentier/22"/><trkseg>
<trkpt lat="50.536759" lon="3.405204"><time>2026-05-02T16:53:30Z</time></trkpt>
<trkpt lat="50.536901" lon="3.406826"><time>2026-05-02T17:03:30Z</time></trkpt>
<trkpt lat="50.537174" lon="3.408045"><time>2026-05-02T17:13:30Z</time></trkpt>
<trkpt lat="50.536961" lon="3.410568"><time>2026-05-02T17:23:30Z</time></trkpt>
</trkseg>
</trk>
<trk>
<name>hbtjm23</name>
<cmt>d</cmt>
<desc>Jollain-Merlin Sentier n°23 </desc>
<link href="https://chemins.be/jollainmerlin/sentier/23"/><trkseg>
<trkpt lat="50.536526" lon="3.401185"><time>2026-05-02T16:53:30Z</time></trkpt>
<trkpt lat="50.536499" lon="3.399580"><time>2026-05-02T17:03:30Z</time></trkpt>
<trkpt lat="50.536627" lon="3.399648"><time>2026-05-02T17:13:30Z</time></trkpt>
<trkpt lat="50.536848" lon="3.398768"><time>2026-05-02T17:23:30Z</time></trkpt>
<trkpt lat="50.536993" lon="3.398189"><time>2026-05-02T17:33:30Z</time></trkpt>
<trkpt lat="50.536817" lon="3.398182"><time>2026-05-02T17:43:30Z</time></trkpt>
<trkpt lat="50.536662" lon="3.396917"><time>2026-05-02T17:53:30Z</time></trkpt>
<trkpt lat="50.535429" lon="3.394042"><time>2026-05-02T18:03:30Z</time></trkpt>
<trkpt lat="50.535495" lon="3.391407"><time>2026-05-02T18:13:30Z</time></trkpt>
<trkpt lat="50.535402" lon="3.390153"><time>2026-05-02T18:23:30Z</time></trkpt>
<trkpt lat="50.534687" lon="3.388660"><time>2026-05-02T18:33:30Z</time></trkpt>
</trkseg>
</trk>
<trk>
<name>hbtjm24</name>
<cmt>d</cmt>
<desc>Jollain-Merlin Sentier n°24 </desc>
<link href="https://chemins.be/jollainmerlin/sentier/24"/><trkseg>
<trkpt lat="50.539659" lon="3.401919"><time>2026-05-02T16:53:30Z</time></trkpt>
<trkpt lat="50.539891" lon="3.398988"><time>2026-05-02T17:03:30Z</time></trkpt>
</trkseg>
</trk>
<trk>
<name>hbtjm25</name>
<cmt>r</cmt>
<desc>Jollain-Merlin Sentier n°25 Ruelle Chatelot</desc>
<link href="https://chemins.be/jollainmerlin/sentier/25"/><trkseg>
<trkpt lat="50.537290" lon="3.405163"><time>2026-05-02T16:53:30Z</time></trkpt>
<trkpt lat="50.537571" lon="3.406283"><time>2026-05-02T17:03:30Z</time></trkpt>
</trkseg></trk>
<trk>
<name>hbtjm25</name>
<cmt>q</cmt>
<desc>Jollain-Merlin Sentier n°25 Ruelle Chatelot</desc>
<link href="https://chemins.be/jollainmerlin/sentier/25"/><trkseg>
<trkpt lat="50.537571" lon="3.406283"><time>2026-05-02T17:03:30Z</time></trkpt>
<trkpt lat="50.537746" lon="3.406871"><time>2026-05-02T17:13:30Z</time></trkpt>
<trkpt lat="50.537866" lon="3.406897"><time>2026-05-02T17:23:30Z</time></trkpt>
<trkpt lat="50.538627" lon="3.406352"><time>2026-05-02T17:33:30Z</time></trkpt>
<trkpt lat="50.539453" lon="3.406150"><time>2026-05-02T17:43:30Z</time></trkpt>
</trkseg>
</trk>
<trk>
<name>hbtjm26</name>
<cmt>d</cmt>
<desc>Jollain-Merlin Sentier n°26 </desc>
<link href="https://chemins.be/jollainmerlin/sentier/26"/><trkseg>
<trkpt lat="50.534207" lon="3.406564"><time>2026-05-02T16:53:30Z</time></trkpt>
<trkpt lat="50.535478" lon="3.406770"><time>2026-05-02T17:03:30Z</time></trkpt>
<trkpt lat="50.536913" lon="3.406787"><time>2026-05-02T17:13:30Z</time></trkpt>
</trkseg>
</trk>
<trk>
<name>hbtjm4</name>
<cmt>v</cmt>
<desc>Jollain-Merlin Chemin n°4 rue Vieux Baillard / Rue Vieux Baillard</desc>
<link href="https://chemins.be/jollainmerlin/chemin/4"/><trkseg>
<trkpt lat="50.541208" lon="3.399743"><time>2026-05-02T16:53:30Z</time></trkpt>
<trkpt lat="50.539880" lon="3.399009"><time>2026-05-02T17:03:30Z</time></trkpt>
<trkpt lat="50.538916" lon="3.398674"><time>2026-05-02T17:13:30Z</time></trkpt>
<trkpt lat="50.537120" lon="3.398164"><time>2026-05-02T17:23:30Z</time></trkpt>
<trkpt lat="50.535497" lon="3.398674"><time>2026-05-02T17:33:30Z</time></trkpt>
<trkpt lat="50.534981" lon="3.399082"><time>2026-05-02T17:43:30Z</time></trkpt>
<trkpt lat="50.534416" lon="3.397479"><time>2026-05-02T17:53:30Z</time></trkpt>
<trkpt lat="50.534285" lon="3.395505"><time>2026-05-02T18:03:30Z</time></trkpt>
<trkpt lat="50.534012" lon="3.394750"><time>2026-05-02T18:13:30Z</time></trkpt>
<trkpt lat="50.533434" lon="3.393926"><time>2026-05-02T18:23:30Z</time></trkpt>
<trkpt lat="50.530976" lon="3.392406"><time>2026-05-02T18:33:30Z</time></trkpt>
<trkpt lat="50.530474" lon="3.390879"><time>2026-05-02T18:43:30Z</time></trkpt>
<trkpt lat="50.529339" lon="3.390106"><time>2026-05-02T18:53:30Z</time></trkpt>
<trkpt lat="50.528193" lon="3.388424"><time>2026-05-02T19:03:30Z</time></trkpt>
</trkseg>
</trk>
<trk>
<name>hbtjm5</name>
<cmt>v</cmt>
<desc>Jollain-Merlin Chemin n°5 </desc>
<link href="https://chemins.be/jollainmerlin/chemin/5"/><trkseg>
<trkpt lat="50.524808" lon="3.401530"><time>2026-05-02T16:53:30Z</time></trkpt>
<trkpt lat="50.527438" lon="3.404483"><time>2026-05-02T17:03:30Z</time></trkpt>
<trkpt lat="50.527828" lon="3.405402"><time>2026-05-02T17:13:30Z</time></trkpt>
<trkpt lat="50.528638" lon="3.406299"><time>2026-05-02T17:23:30Z</time></trkpt>
<trkpt lat="50.529719" lon="3.407262"><time>2026-05-02T17:33:30Z</time></trkpt>
<trkpt lat="50.530120" lon="3.407802"><time>2026-05-02T17:43:30Z</time></trkpt>
<trkpt lat="50.530417" lon="3.408345"><time>2026-05-02T17:53:30Z</time></trkpt>
<trkpt lat="50.530412" lon="3.408536"><time>2026-05-02T18:03:30Z</time></trkpt>
<trkpt lat="50.530624" lon="3.409118"><time>2026-05-02T18:13:30Z</time></trkpt>
<trkpt lat="50.532774" lon="3.411487"><time>2026-05-02T18:23:30Z</time></trkpt>
<trkpt lat="50.536942" lon="3.413444"><time>2026-05-02T18:33:30Z</time></trkpt>
<trkpt lat="50.537073" lon="3.414044"><time>2026-05-02T18:43:30Z</time></trkpt>
<trkpt lat="50.537651" lon="3.413941"><time>2026-05-02T18:53:30Z</time></trkpt>
</trkseg>
</trk>
<trk>
<name>hbtjmi1</name>
<cmt>v</cmt>
<desc>Jollain-Merlin Chemin n°i1 </desc>
<link href="https://chemins.be/jollainmerlin/chemin/i1"/><trkseg>
<trkpt lat="50.554485" lon="3.398715"><time>2026-05-02T16:53:30Z</time></trkpt>
<trkpt lat="50.555219" lon="3.398061"><time>2026-05-02T17:03:30Z</time></trkpt>
<trkpt lat="50.555356" lon="3.397683"><time>2026-05-02T17:13:30Z</time></trkpt>
<trkpt lat="50.555555" lon="3.397382"><time>2026-05-02T17:23:30Z</time></trkpt>
<trkpt lat="50.556111" lon="3.397001"><time>2026-05-02T17:33:30Z</time></trkpt>
<trkpt lat="50.557539" lon="3.395059"><time>2026-05-02T17:43:30Z</time></trkpt>
<trkpt lat="50.558946" lon="3.394037"><time>2026-05-02T17:53:30Z</time></trkpt>
</trkseg>
</trk>
<trk>
<name>hbtjmi2</name>
<cmt>v</cmt>
<desc>Jollain-Merlin Chemin n°i2 </desc>
<link href="https://chemins.be/jollainmerlin/chemin/i2"/><trkseg>
<trkpt lat="50.529399" lon="3.390115"><time>2026-05-02T16:53:30Z</time></trkpt>
<trkpt lat="50.528658" lon="3.391646"><time>2026-05-02T17:03:30Z</time></trkpt>
<trkpt lat="50.527691" lon="3.393733"><time>2026-05-02T17:13:30Z</time></trkpt>
<trkpt lat="50.526529" lon="3.396243"><time>2026-05-02T17:23:30Z</time></trkpt>
<trkpt lat="50.525572" lon="3.398201"><time>2026-05-02T17:33:30Z</time></trkpt>
<trkpt lat="50.525479" lon="3.398419"><time>2026-05-02T17:43:30Z</time></trkpt>
<trkpt lat="50.525840" lon="3.398550"><time>2026-05-02T17:53:30Z</time></trkpt>
<trkpt lat="50.525117" lon="3.401743"><time>2026-05-02T18:03:30Z</time></trkpt>
</trkseg>
</trk>
<trk>
<name>hbtjmp1</name>
<cmt>v</cmt>
<desc>Jollain-Merlin Chemin particulier n°p1 </desc>
<link href="https://chemins.be/jollainmerlin/chemin/p1"/><trkseg>
<trkpt lat="50.554667" lon="3.403143"><time>2026-05-02T16:53:30Z</time></trkpt>
<trkpt lat="50.555100" lon="3.403402"><time>2026-05-02T17:03:30Z</time></trkpt>
</trkseg></trk>
<trk>
<name>hbtjmp1</name>
<cmt>b</cmt>
<desc>Jollain-Merlin Chemin particulier n°p1 </desc>
<link href="https://chemins.be/jollainmerlin/chemin/p1"/><trkseg>
<trkpt lat="50.555100" lon="3.403402"><time>2026-05-02T17:03:30Z</time></trkpt>
<trkpt lat="50.555226" lon="3.403343"><time>2026-05-02T17:13:30Z</time></trkpt>
<trkpt lat="50.555642" lon="3.403645"><time>2026-05-02T17:23:30Z</time></trkpt>
</trkseg></trk>
<trk>
<name>hbtjmp1</name>
<cmt>d</cmt>
<desc>Jollain-Merlin Chemin particulier n°p1 </desc>
<link href="https://chemins.be/jollainmerlin/chemin/p1"/><trkseg>
<trkpt lat="50.555642" lon="3.403645"><time>2026-05-02T17:23:30Z</time></trkpt>
<trkpt lat="50.558755" lon="3.407209"><time>2026-05-02T17:33:30Z</time></trkpt>
</trkseg>
</trk>
<trk>
<name>hbtjmp2</name>
<cmt>v</cmt>
<desc>Jollain-Merlin Chemin particulier n°p2 </desc>
<link href="https://chemins.be/jollainmerlin/chemin/p2"/><trkseg>
<trkpt lat="50.555759" lon="3.400784"><time>2026-05-02T16:53:30Z</time></trkpt>
<trkpt lat="50.555975" lon="3.400470"><time>2026-05-02T17:03:30Z</time></trkpt>
<trkpt lat="50.559308" lon="3.399934"><time>2026-05-02T17:13:30Z</time></trkpt>
</trkseg></trk>
<trk>
<name>hbtjmp2</name>
<cmt>s</cmt>
<desc>Jollain-Merlin Chemin particulier n°p2 </desc>
<link href="https://chemins.be/jollainmerlin/chemin/p2"/><trkseg>
<trkpt lat="50.559308" lon="3.399934"><time>2026-05-02T17:13:30Z</time></trkpt>
<trkpt lat="50.560215" lon="3.399609"><time>2026-05-02T17:23:30Z</time></trkpt>
</trkseg></trk>
<trk>
<name>hbtjmp2</name>
<cmt>q</cmt>
<desc>Jollain-Merlin Chemin particulier n°p2 </desc>
<link href="https://chemins.be/jollainmerlin/chemin/p2"/><trkseg>
<trkpt lat="50.560215" lon="3.399609"><time>2026-05-02T17:23:30Z</time></trkpt>
<trkpt lat="50.562446" lon="3.398809"><time>2026-05-02T17:33:30Z</time></trkpt>
<trkpt lat="50.564093" lon="3.397058"><time>2026-05-02T17:43:30Z</time></trkpt>
</trkseg>
</trk>
<trk>
<name>hbtjmp3</name>
<cmt>v</cmt>
<desc>Jollain-Merlin Chemin particulier n°p3 </desc>
<link href="https://chemins.be/jollainmerlin/chemin/p3"/><trkseg>
<trkpt lat="50.552566" lon="3.402157"><time>2026-05-02T16:53:30Z</time></trkpt>
<trkpt lat="50.549517" lon="3.400234"><time>2026-05-02T17:03:30Z</time></trkpt>
</trkseg>
</trk>
<trk>
<name>hbtjmp4</name>
<cmt>v</cmt>
<desc>Jollain-Merlin Chemin particulier n°p4 </desc>
<link href="https://chemins.be/jollainmerlin/chemin/p4"/><trkseg>
<trkpt lat="50.534644" lon="3.400021"><time>2026-05-02T16:53:30Z</time></trkpt>
<trkpt lat="50.534513" lon="3.400008"><time>2026-05-02T17:03:30Z</time></trkpt>
<trkpt lat="50.533377" lon="3.399264"><time>2026-05-02T17:13:30Z</time></trkpt>
<trkpt lat="50.530480" lon="3.398964"><time>2026-05-02T17:23:30Z</time></trkpt>
</trkseg>
</trk>
</gpx>